createdAt,value
2023-05-10T00:01:26.971Z,0.80
2023-05-10T00:03:55.297Z,0.70
2023-05-10T00:06:23.857Z,0.90
2023-05-10T00:08:52.178Z,0.82
2023-05-10T00:11:22.186Z,0.90
2023-05-10T00:13:51.200Z,0.95
2023-05-10T00:16:19.579Z,0.75
2023-05-10T00:18:48.107Z,0.80
2023-05-10T00:21:16.520Z,0.60
2023-05-10T00:23:44.826Z,0.98
2023-05-10T00:26:13.262Z,0.75
2023-05-10T00:28:41.577Z,0.70
2023-05-10T00:31:09.949Z,0.95
2023-05-10T00:33:38.216Z,0.98
2023-05-10T00:36:09.306Z,0.70
2023-05-10T00:38:37.516Z,0.75
2023-05-10T00:41:06.054Z,1.00
2023-05-10T00:43:34.339Z,0.80
2023-05-10T00:46:02.782Z,0.60
2023-05-10T00:48:31.857Z,0.50
2023-05-10T00:51:00.177Z,0.70
2023-05-10T00:53:29.318Z,0.70
2023-05-10T00:55:57.677Z,0.60
2023-05-10T00:58:29.851Z,0.80
2023-05-10T01:00:59.096Z,0.70
2023-05-10T01:03:28.129Z,0.50
2023-05-10T01:05:57.057Z,0.80
2023-05-10T01:08:25.790Z,0.80
2023-05-10T01:10:54.481Z,0.60
2023-05-10T01:13:52.412Z,0.70
2023-05-10T01:16:20.776Z,0.63
2023-05-10T01:18:50.625Z,0.70
2023-05-10T01:21:33.914Z,0.68
2023-05-10T01:24:16.976Z,0.73
2023-05-10T01:27:19.415Z,0.57
2023-05-10T01:30:17.312Z,0.52
2023-05-10T01:32:59.919Z,0.50
2023-05-10T01:35:43.851Z,0.68
2023-05-10T01:38:30.709Z,0.60
2023-05-10T01:41:21.974Z,0.40
2023-05-10T01:44:20.588Z,0.60
2023-05-10T01:47:00.303Z,0.50
2023-05-10T01:49:34.602Z,0.73
2023-05-10T01:52:09.164Z,0.85
2023-05-10T01:57:10.687Z,0.75
2023-05-10T01:59:42.580Z,0.65
2023-05-10T02:02:13.786Z,0.65
2023-05-10T02:04:44.278Z,0.47
2023-05-10T02:07:13.756Z,0.70
2023-05-10T02:09:46.098Z,0.88
2023-05-10T02:12:16.120Z,0.70
2023-05-10T02:14:45.829Z,0.75
2023-05-10T02:17:15.177Z,0.60
2023-05-10T02:19:45.268Z,0.57
2023-05-10T02:22:15.420Z,0.65
2023-05-10T02:24:44.955Z,0.70
2023-05-10T02:27:14.541Z,0.75
2023-05-10T02:29:43.415Z,0.63
2023-05-10T02:32:13.828Z,0.70
2023-05-10T02:34:43.015Z,0.80
2023-05-10T02:37:11.932Z,0.60
2023-05-10T02:39:45.473Z,0.77
2023-05-10T02:42:22.142Z,0.98
2023-05-10T02:44:53.064Z,0.73
2023-05-10T02:47:21.883Z,0.80
2023-05-10T02:49:50.331Z,0.65
2023-05-10T02:52:29.328Z,0.65
2023-05-10T02:55:02.805Z,0.43
2023-05-10T02:57:35.686Z,0.88
2023-05-10T03:00:05.177Z,0.60
2023-05-10T03:02:33.807Z,0.63
2023-05-10T03:05:02.224Z,1.00
2023-05-10T03:07:30.558Z,1.40
2023-05-10T03:09:58.926Z,1.38
2023-05-10T03:12:38.696Z,1.25
2023-05-10T03:15:39.329Z,0.63
2023-05-10T03:18:19.245Z,0.40
2023-05-10T03:20:52.946Z,0.63
2023-05-10T03:23:28.013Z,0.60
2023-05-10T03:25:56.690Z,0.50
2023-05-10T03:28:29.055Z,0.63
2023-05-10T03:30:58.397Z,0.77
2023-05-10T03:33:27.102Z,0.45
2023-05-10T03:35:55.304Z,0.40
2023-05-10T03:38:23.495Z,0.63
2023-05-10T03:40:51.850Z,0.75
2023-05-10T03:43:20.111Z,0.60
2023-05-10T03:45:48.682Z,0.60
2023-05-10T03:48:16.966Z,1.23
2023-05-10T03:50:45.200Z,0.68
2023-05-10T03:53:14.975Z,0.90
2023-05-10T03:55:44.225Z,0.80
2023-05-10T03:58:15.978Z,0.90
2023-05-10T04:00:47.108Z,0.63
2023-05-10T04:03:15.763Z,0.70
2023-05-10T04:05:44.053Z,0.98
2023-05-10T04:08:12.441Z,0.60
2023-05-10T04:10:41.545Z,0.75
2023-05-10T04:13:09.767Z,0.70
2023-05-10T04:15:38.158Z,0.65
2023-05-10T04:18:08.695Z,0.77
2023-05-10T04:20:37.381Z,0.70
2023-05-10T04:23:05.683Z,0.77
2023-05-10T04:25:37.422Z,0.70
2023-05-10T04:28:05.822Z,0.63
2023-05-10T04:30:34.066Z,0.63
2023-05-10T04:33:03.629Z,0.70
2023-05-10T04:35:32.106Z,0.70
2023-05-10T04:38:00.299Z,0.93
2023-05-10T04:40:28.929Z,0.70
2023-05-10T04:42:57.352Z,1.05
2023-05-10T04:45:25.550Z,0.60
2023-05-10T04:47:53.769Z,0.57
2023-05-10T04:50:22.053Z,0.82
2023-05-10T04:52:50.235Z,0.60
2023-05-10T04:55:18.484Z,0.93
2023-05-10T04:57:47.089Z,0.50
2023-05-10T05:00:15.820Z,0.80
2023-05-10T05:02:48.183Z,0.70
2023-05-10T05:05:16.571Z,0.70
2023-05-10T05:07:44.712Z,0.70
2023-05-10T05:10:12.909Z,0.80
2023-05-10T05:12:41.098Z,0.85
2023-05-10T05:15:11.054Z,1.27
2023-05-10T05:17:39.427Z,0.90
2023-05-10T05:20:08.442Z,0.75
2023-05-10T05:22:38.688Z,0.80
2023-05-10T05:25:07.837Z,0.80
2023-05-10T05:27:36.065Z,1.00
2023-05-10T05:30:04.356Z,0.93
2023-05-10T05:32:32.835Z,0.90
2023-05-10T05:35:01.217Z,0.65
2023-05-10T05:37:29.441Z,0.90
2023-05-10T05:39:57.688Z,0.77
2023-05-10T05:42:25.913Z,0.90
2023-05-10T05:44:54.152Z,0.90
2023-05-10T05:47:22.800Z,0.60
2023-05-10T05:49:50.962Z,0.88
2023-05-10T05:52:19.508Z,0.70
2023-05-10T05:54:48.267Z,0.80
2023-05-10T05:57:16.460Z,0.85
2023-05-10T05:59:45.711Z,0.63
2023-05-10T06:02:14.146Z,0.77
2023-05-10T06:04:44.642Z,0.88
2023-05-10T06:07:13.099Z,1.02
2023-05-10T06:09:41.559Z,1.10
2023-05-10T06:12:09.771Z,1.02
2023-05-10T06:14:38.139Z,0.75
2023-05-10T06:17:06.952Z,0.80
2023-05-10T06:19:35.172Z,0.70
2023-05-10T06:22:03.657Z,0.95
2023-05-10T06:24:31.905Z,1.17
2023-05-10T06:27:01.921Z,0.80
2023-05-10T06:29:30.166Z,0.80
2023-05-10T06:31:58.554Z,1.00
2023-05-10T06:34:27.545Z,1.05
2023-05-10T06:36:55.784Z,0.90
2023-05-10T06:39:24.112Z,1.10
2023-05-10T06:41:52.319Z,0.88
2023-05-10T06:44:20.513Z,0.80
2023-05-10T06:46:49.434Z,0.70
2023-05-10T06:49:17.734Z,1.02
2023-05-10T06:51:47.104Z,0.98
2023-05-10T06:54:15.505Z,0.90
2023-05-10T06:56:43.801Z,0.93
2023-05-10T06:59:12.101Z,1.00
2023-05-10T07:01:40.365Z,0.90
2023-05-10T07:04:09.610Z,1.25
2023-05-10T07:06:37.870Z,1.20
2023-05-10T07:09:06.134Z,0.98
2023-05-10T07:11:34.329Z,1.10
2023-05-10T07:14:02.608Z,1.05
2023-05-10T07:16:30.794Z,0.90
2023-05-10T07:18:59.013Z,1.00
2023-05-10T07:21:30.271Z,1.40
2023-05-10T07:23:58.544Z,0.93
2023-05-10T07:26:27.072Z,1.20
2023-05-10T07:28:55.251Z,1.65
2023-05-10T07:31:23.537Z,1.38
2023-05-10T07:33:51.728Z,0.98
2023-05-10T07:36:20.126Z,1.05
2023-05-10T07:38:48.793Z,1.08
2023-05-10T07:41:16.973Z,1.10
2023-05-10T07:43:45.546Z,0.80
2023-05-10T07:46:13.773Z,1.10
2023-05-10T07:48:42.100Z,1.23
2023-05-10T07:51:11.272Z,0.95
2023-05-10T07:53:42.326Z,1.33
2023-05-10T07:56:47.260Z,1.00
2023-05-10T07:59:19.580Z,1.10
2023-05-10T08:01:48.466Z,1.27
2023-05-10T08:04:17.278Z,1.33
2023-05-10T08:06:45.511Z,1.05
2023-05-10T08:09:13.787Z,1.10
2023-05-10T08:11:41.985Z,1.10
2023-05-10T08:14:10.186Z,1.02
2023-05-10T08:16:38.395Z,1.17
2023-05-10T08:19:06.672Z,1.30
2023-05-10T08:21:34.901Z,1.40
2023-05-10T08:24:03.268Z,1.30
2023-05-10T08:26:31.598Z,1.08
2023-05-10T08:28:59.821Z,1.52
2023-05-10T08:31:28.311Z,1.08
2023-05-10T08:33:56.505Z,1.33
2023-05-10T08:36:26.083Z,1.30
2023-05-10T08:38:55.281Z,1.08
2023-05-10T08:41:25.641Z,1.15
2023-05-10T08:43:55.383Z,1.38
2023-05-10T08:46:25.272Z,1.15
2023-05-10T08:48:54.027Z,1.10
2023-05-10T08:51:27.128Z,1.17
2023-05-10T08:53:55.582Z,1.25
2023-05-10T08:56:23.838Z,1.10
2023-05-10T08:58:53.382Z,1.00
2023-05-10T09:01:22.625Z,1.08
2023-05-10T09:03:51.352Z,1.02
2023-05-10T09:06:19.649Z,1.10
2023-05-10T09:08:49.495Z,1.23
2023-05-10T09:11:19.476Z,1.13
2023-05-10T09:13:49.636Z,1.38
2023-05-10T09:16:21.817Z,1.02
2023-05-10T09:18:51.338Z,1.10
2023-05-10T09:21:21.290Z,1.10
2023-05-10T09:23:51.773Z,1.30
2023-05-10T09:26:25.071Z,1.20
2023-05-10T09:28:58.105Z,1.27
2023-05-10T09:31:29.514Z,1.02
2023-05-10T09:33:58.084Z,1.15
2023-05-10T09:36:26.254Z,0.93
2023-05-10T09:38:54.862Z,1.05
2023-05-10T09:41:24.967Z,1.30
2023-05-10T09:43:58.385Z,1.02
2023-05-10T09:46:26.761Z,1.23
2023-05-10T09:48:55.067Z,1.35
2023-05-10T09:51:24.760Z,1.17
2023-05-10T09:54:20.351Z,1.45
2023-05-10T09:56:48.862Z,1.10
2023-05-10T09:59:17.223Z,1.42
2023-05-10T10:01:52.984Z,1.27
2023-05-10T10:04:23.190Z,0.98
2023-05-10T10:07:11.662Z,1.30
2023-05-10T10:09:40.565Z,1.33
2023-05-10T10:12:08.767Z,1.00
2023-05-10T10:14:39.328Z,1.10
2023-05-10T10:17:08.910Z,0.93
2023-05-10T10:19:38.476Z,1.00
2023-05-10T10:22:07.969Z,1.30
2023-05-10T10:24:36.525Z,1.30
2023-05-10T10:27:23.716Z,1.00
2023-05-10T10:30:12.120Z,1.27
2023-05-10T10:32:52.150Z,1.13
2023-05-10T10:35:20.882Z,1.02
2023-05-10T10:37:52.162Z,1.10
2023-05-10T10:40:33.680Z,1.30
2023-05-10T10:43:30.393Z,1.25
2023-05-10T10:46:20.824Z,1.23
2023-05-10T10:49:11.006Z,1.20
2023-05-10T10:51:42.622Z,1.08
2023-05-10T10:54:14.260Z,1.38
2023-05-10T10:56:42.450Z,1.20
2023-05-10T10:59:10.956Z,1.25
2023-05-10T11:01:45.964Z,1.00
2023-05-10T11:04:14.382Z,0.95
2023-05-10T11:06:44.280Z,1.20
2023-05-10T11:09:14.516Z,1.42
2023-05-10T11:12:00.162Z,0.90
2023-05-10T11:14:28.799Z,0.95
2023-05-10T11:16:57.096Z,1.20
2023-05-10T11:19:30.446Z,0.95
2023-05-10T11:22:07.778Z,0.80
2023-05-10T11:24:37.584Z,0.93
2023-05-10T11:27:06.198Z,0.90
2023-05-10T11:29:34.396Z,1.02
2023-05-10T11:32:02.614Z,1.15
2023-05-10T11:34:35.271Z,0.90
2023-05-10T11:37:03.676Z,1.13
2023-05-10T11:39:35.375Z,1.30
2023-05-10T11:42:03.689Z,1.00
2023-05-10T11:44:33.561Z,1.02
2023-05-10T11:47:02.884Z,1.02
2023-05-10T11:49:31.224Z,0.90
2023-05-10T11:52:13.186Z,0.82
2023-05-10T11:55:01.595Z,1.10
2023-05-10T11:57:30.532Z,0.80
2023-05-10T11:59:59.450Z,0.90
2023-05-10T12:02:27.934Z,1.10
2023-05-10T12:04:57.850Z,0.90
2023-05-10T12:07:27.945Z,0.90
2023-05-10T12:10:10.067Z,1.00
2023-05-10T12:12:49.874Z,0.88
2023-05-10T12:15:26.555Z,0.90
2023-05-10T12:17:54.945Z,1.00
2023-05-10T12:20:25.079Z,0.80
2023-05-10T12:22:57.807Z,0.90
2023-05-10T12:28:04.589Z,1.00
2023-05-10T12:30:34.702Z,0.93
2023-05-10T12:33:03.996Z,0.90
2023-05-10T12:35:36.044Z,0.90
2023-05-10T12:38:40.928Z,0.88
2023-05-10T12:41:11.455Z,0.80
2023-05-10T12:43:40.807Z,0.98
2023-05-10T12:46:10.804Z,0.82
2023-05-10T12:48:40.327Z,1.08
2023-05-10T12:51:11.299Z,1.13
2023-05-10T12:53:41.524Z,0.80
2023-05-10T12:56:11.694Z,0.80
2023-05-10T12:58:40.721Z,0.80
2023-05-10T13:01:08.983Z,0.90
2023-05-10T13:03:37.160Z,0.90
2023-05-10T13:06:05.483Z,1.00
2023-05-10T13:08:35.191Z,0.93
2023-05-10T13:11:04.935Z,0.82
2023-05-10T13:13:33.084Z,0.90
2023-05-10T13:16:01.276Z,0.80
2023-05-10T13:18:29.658Z,0.98
2023-05-10T13:20:57.955Z,1.08
2023-05-10T13:23:26.179Z,0.90
2023-05-10T13:25:54.535Z,0.90
2023-05-10T13:28:22.770Z,1.08
2023-05-10T13:30:50.943Z,0.73
2023-05-10T13:33:19.115Z,0.77
2023-05-10T13:35:47.396Z,0.90
2023-05-10T13:38:15.915Z,0.73
2023-05-10T13:40:44.187Z,0.90
2023-05-10T13:43:12.447Z,0.90
2023-05-10T13:45:40.803Z,1.10
2023-05-10T13:48:09.016Z,1.00
2023-05-10T13:50:37.300Z,1.15
2023-05-10T13:53:05.700Z,1.17
2023-05-10T13:55:34.061Z,1.10
2023-05-10T13:58:02.250Z,1.08
2023-05-10T14:00:30.424Z,0.93
2023-05-10T14:02:58.702Z,0.90
2023-05-10T14:05:27.327Z,1.00
2023-05-10T14:07:55.741Z,1.13
2023-05-10T14:10:23.926Z,0.80
2023-05-10T14:12:52.448Z,1.00
2023-05-10T14:15:20.674Z,1.42
2023-05-10T14:17:49.681Z,1.50
2023-05-10T14:20:18.118Z,1.10
2023-05-10T14:22:46.661Z,1.20
2023-05-10T14:25:15.903Z,1.48
2023-05-10T14:27:44.443Z,1.23
2023-05-10T14:30:13.379Z,1.10
2023-05-10T14:32:41.603Z,1.45
2023-05-10T14:35:12.188Z,1.52
2023-05-10T14:37:41.314Z,1.15
2023-05-10T14:40:11.092Z,1.10
2023-05-10T14:42:39.288Z,1.40
2023-05-10T14:45:07.959Z,1.30
2023-05-10T14:47:36.390Z,1.40
2023-05-10T14:50:04.737Z,1.30
2023-05-10T14:52:34.355Z,1.30
2023-05-10T14:55:03.176Z,1.30
2023-05-10T14:57:31.562Z,1.40
2023-05-10T14:59:59.938Z,1.40
2023-05-10T15:02:28.635Z,1.42
2023-05-10T15:04:57.515Z,1.50
2023-05-10T15:07:26.197Z,1.30
2023-05-10T15:09:54.509Z,1.60
2023-05-10T15:12:23.050Z,1.20
2023-05-10T15:14:51.446Z,1.40
2023-05-10T15:17:19.634Z,1.25
2023-05-10T15:19:48.218Z,1.35
2023-05-10T15:22:16.395Z,1.38
2023-05-10T15:24:44.646Z,1.30
2023-05-10T15:27:12.979Z,1.55
2023-05-10T15:29:41.174Z,1.52
2023-05-10T15:32:09.481Z,1.23
2023-05-10T15:34:37.900Z,1.25
2023-05-10T15:37:06.347Z,1.20
2023-05-10T15:39:34.521Z,1.48
2023-05-10T15:42:03.262Z,0.90
2023-05-10T15:44:31.700Z,1.00
2023-05-10T15:47:00.065Z,1.00
2023-05-10T15:49:28.281Z,0.90
2023-05-10T15:51:56.475Z,1.05
2023-05-10T15:54:24.703Z,1.35
2023-05-10T15:56:52.938Z,1.13
2023-05-10T15:59:21.156Z,1.23
2023-05-10T16:01:50.672Z,1.20
2023-05-10T16:04:19.141Z,0.98
2023-05-10T16:06:47.347Z,1.00
2023-05-10T16:09:16.467Z,1.33
2023-05-10T16:11:45.164Z,1.10
2023-05-10T16:14:13.615Z,1.25
2023-05-10T16:16:42.273Z,1.00
2023-05-10T16:19:10.560Z,0.93
2023-05-10T16:21:39.046Z,0.93
2023-05-10T16:24:07.356Z,1.13
2023-05-10T16:26:41.451Z,1.02
2023-05-10T16:29:10.448Z,1.15
2023-05-10T16:31:38.765Z,1.27
2023-05-10T16:34:06.981Z,1.27
2023-05-10T16:36:35.207Z,1.20
2023-05-10T16:39:03.684Z,1.00
2023-05-10T16:41:35.413Z,1.20
2023-05-10T16:44:04.624Z,0.90
2023-05-10T16:46:33.979Z,1.30
2023-05-10T16:49:02.234Z,1.00
2023-05-10T16:51:30.401Z,0.93
2023-05-10T16:53:58.629Z,1.00
2023-05-10T16:56:27.526Z,1.00
2023-05-10T16:58:55.761Z,0.90
2023-05-10T17:01:26.489Z,1.05
2023-05-10T17:03:55.406Z,1.20
2023-05-10T17:06:23.856Z,1.20
2023-05-10T17:08:52.541Z,1.00
2023-05-10T17:11:22.595Z,0.65
2023-05-10T17:13:52.793Z,0.98
2023-05-10T17:16:22.209Z,1.00
2023-05-10T17:18:50.606Z,0.98
2023-05-10T17:21:18.866Z,1.23
2023-05-10T17:23:47.096Z,0.98
2023-05-10T17:26:15.331Z,0.82
2023-05-10T17:28:43.568Z,1.10
2023-05-10T17:31:12.574Z,1.00
2023-05-10T17:33:41.091Z,0.88
2023-05-10T17:36:09.535Z,1.13
2023-05-10T17:38:38.276Z,0.98
2023-05-10T17:41:06.514Z,1.17
2023-05-10T17:43:34.700Z,1.50
2023-05-10T17:46:03.036Z,1.20
2023-05-10T17:48:31.786Z,0.90
2023-05-10T17:51:00.014Z,1.33
2023-05-10T17:53:28.408Z,1.02
2023-05-10T17:55:59.868Z,1.15
2023-05-10T17:58:28.297Z,1.10
2023-05-10T18:00:58.325Z,1.42
2023-05-10T18:03:26.843Z,1.20
2023-05-10T18:05:56.107Z,1.23
2023-05-10T18:08:27.744Z,1.13
2023-05-10T18:10:55.934Z,1.05
2023-05-10T18:13:25.210Z,1.02
2023-05-10T18:15:54.097Z,0.88
2023-05-10T18:18:22.419Z,1.00
2023-05-10T18:20:57.190Z,1.17
2023-05-10T18:23:25.790Z,1.20
2023-05-10T18:25:54.361Z,0.88
2023-05-10T18:28:22.668Z,0.93
2023-05-10T18:30:51.155Z,0.85
2023-05-10T18:33:19.442Z,1.10
2023-05-10T18:35:48.483Z,0.90
2023-05-10T18:38:16.769Z,1.30
2023-05-10T18:40:45.089Z,1.10
2023-05-10T18:43:13.324Z,1.00
2023-05-10T18:45:41.578Z,1.00
2023-05-10T18:48:09.777Z,1.10
2023-05-10T18:50:37.956Z,1.00
2023-05-10T18:53:06.191Z,0.90
2023-05-10T18:55:34.447Z,0.90
2023-05-10T18:58:02.826Z,0.70
2023-05-10T19:00:31.004Z,1.05
2023-05-10T19:02:59.234Z,0.90
2023-05-10T19:05:30.916Z,0.98
2023-05-10T19:07:59.260Z,1.10
2023-05-10T19:10:27.454Z,0.90
2023-05-10T19:12:55.616Z,1.08
2023-05-10T19:15:24.160Z,1.20
2023-05-10T19:17:53.273Z,0.75
2023-05-10T19:20:24.062Z,1.02
2023-05-10T19:23:08.234Z,0.80
2023-05-10T19:25:38.276Z,1.40
2023-05-10T19:28:06.514Z,1.10
2023-05-10T19:30:34.872Z,1.20
2023-05-10T19:33:05.967Z,1.20
2023-05-10T19:35:34.221Z,0.80
2023-05-10T19:38:02.523Z,1.63
2023-05-10T19:40:30.851Z,1.10
2023-05-10T19:42:59.097Z,0.90
2023-05-10T19:45:27.814Z,1.20
2023-05-10T19:47:56.258Z,1.30
2023-05-10T19:50:24.693Z,1.08
2023-05-10T19:52:53.268Z,1.05
2023-05-10T19:55:30.049Z,1.27
2023-05-10T19:57:58.762Z,0.90
2023-05-10T20:00:28.096Z,1.10
2023-05-10T20:02:56.881Z,1.02
2023-05-10T20:05:25.546Z,1.15
2023-05-10T20:07:53.968Z,1.15
2023-05-10T20:10:25.200Z,1.55
2023-05-10T20:12:55.263Z,1.98
2023-05-10T20:15:24.474Z,1.40
2023-05-10T20:17:54.091Z,1.40
2023-05-10T20:20:23.163Z,1.02
2023-05-10T20:22:51.957Z,1.30
2023-05-10T20:25:20.495Z,1.20
2023-05-10T20:27:51.618Z,1.10
2023-05-10T20:30:20.585Z,1.48
2023-05-10T20:32:49.294Z,1.30
2023-05-10T20:35:17.536Z,0.90
2023-05-10T20:37:45.730Z,1.10
2023-05-10T20:40:14.454Z,1.00
2023-05-10T20:42:42.831Z,0.90
2023-05-10T20:45:11.614Z,1.20
2023-05-10T20:47:39.870Z,1.20
2023-05-10T20:50:08.703Z,1.20
2023-05-10T20:52:36.886Z,1.20
2023-05-10T20:55:05.317Z,1.02
2023-05-10T20:57:33.513Z,1.33
2023-05-10T21:00:01.885Z,1.10
2023-05-10T21:02:30.133Z,0.98
2023-05-10T21:04:58.437Z,1.30
2023-05-10T21:07:26.715Z,1.10
2023-05-10T21:09:54.966Z,1.08
2023-05-10T21:12:23.196Z,1.10
2023-05-10T21:14:51.464Z,1.08
2023-05-10T21:17:20.221Z,0.95
2023-05-10T21:19:48.955Z,1.10
2023-05-10T21:22:17.457Z,1.00
2023-05-10T21:24:45.722Z,1.38
2023-05-10T21:27:14.239Z,1.08
2023-05-10T21:29:42.448Z,1.15
2023-05-10T21:32:10.748Z,1.00
2023-05-10T21:34:38.973Z,1.15
2023-05-10T21:37:07.262Z,1.20
2023-05-10T21:39:35.525Z,1.30
2023-05-10T21:42:04.492Z,1.30
2023-05-10T21:44:32.867Z,1.15
2023-05-10T21:47:01.122Z,1.23
2023-05-10T21:49:29.363Z,1.23
2023-05-10T21:51:57.631Z,1.20
2023-05-10T21:54:25.881Z,1.13
2023-05-10T21:56:54.629Z,1.20
2023-05-10T21:59:22.944Z,1.40
2023-05-10T22:01:51.247Z,1.58
2023-05-10T22:04:19.413Z,1.33
2023-05-10T22:06:48.125Z,1.08
2023-05-10T22:09:16.452Z,1.25
2023-05-10T22:11:44.625Z,1.20
2023-05-10T22:14:12.845Z,1.05
2023-05-10T22:16:41.068Z,1.05
2023-05-10T22:19:09.475Z,1.30
2023-05-10T22:21:37.789Z,1.50
2023-05-10T22:24:06.177Z,1.30
2023-05-10T22:26:34.424Z,1.08
2023-05-10T22:29:02.648Z,1.50
2023-05-10T22:31:30.899Z,1.50
2023-05-10T22:33:59.267Z,1.30
2023-05-10T22:36:28.122Z,1.38
2023-05-10T22:38:56.504Z,1.05
2023-05-10T22:41:24.796Z,1.10
2023-05-10T22:43:53.041Z,1.17
2023-05-10T22:46:21.350Z,1.02
2023-05-10T22:48:49.967Z,0.90
2023-05-10T22:51:18.175Z,1.08
2023-05-10T22:53:47.130Z,1.05
2023-05-10T22:56:15.453Z,1.10
2023-05-10T22:58:43.861Z,1.10
2023-05-10T23:01:12.260Z,1.10
2023-05-10T23:03:40.588Z,1.20
2023-05-10T23:06:08.836Z,1.30
2023-05-10T23:08:37.029Z,1.13
2023-05-10T23:11:05.209Z,1.30
2023-05-10T23:13:33.480Z,1.33
2023-05-10T23:16:07.446Z,0.90
2023-05-10T23:18:35.933Z,1.50
2023-05-10T23:21:04.178Z,1.00
2023-05-10T23:23:34.808Z,1.20
2023-05-10T23:26:05.000Z,1.42
2023-05-10T23:28:35.048Z,1.25
2023-05-10T23:31:03.613Z,1.20
2023-05-10T23:33:31.871Z,1.13
2023-05-10T23:36:00.068Z,1.30
2023-05-10T23:38:28.258Z,1.20
2023-05-10T23:40:56.530Z,1.35
2023-05-10T23:43:26.102Z,1.30
2023-05-10T23:45:55.969Z,1.42
2023-05-10T23:48:24.954Z,1.13
2023-05-10T23:50:53.216Z,1.20
2023-05-10T23:53:21.545Z,1.00
2023-05-10T23:55:49.859Z,1.30
2023-05-10T23:58:18.136Z,1.20
